Flight Track Log - Related Links

Times and Time Zones

All times are in EDT time to prevent confusion due to time zone crossing. See the N498QS flight status page for this flight to view local times or setup timezone preferences in your user account.

Time Position Orientation Groundspeed Altitude Reporting Facility
EDT Latitude Longitude Course Direction KTS MPH feet Rate Location/Type
Sun 06:11:34 PM 26.5022 -80.0881 North 265 305 7,000  Level Miami Center
Sun 06:12:35 PM 26.4806 -80.0178 109° East 267 307 7,000 443 Level Miami Center
Sun 06:13:36 PM 26.4061 -79.9928 163° South 261 300 7,900 492 Climbing Miami Center
Sun 06:14:37 PM 26.3308 -79.9953 182° South 273 314 8,000 47 Climbing Miami Center
Sun 06:15:44 PM 26.2447 -80.0186 194° South 280 322 8,000  Level Miami Center
Sun 06:16:46 PM 26.1689 -80.0419 195° South 280 322 8,000  Level Miami Center
Sun 06:17:53 PM 26.0869 -80.0631 193° South 284 327 8,000 52 Level Miami Center
Sun 06:18:42 PM 26.0197 -80.0842 196° South 284 327 8,100  Climbing Miami Center
Sun 06:19:43 PM 25.9581 -80.1358 217° Southwest 283 326 8,000 -311 Descending Miami Center
Sun 06:20:57 PM 25.9267 -80.2297 250° West 236 272 7,400 -837 Descending Miami Center
Sun 06:21:52 PM 25.9231 -80.2964 267° West 240 276 6,200 -1,086 Descending Miami Center
Sun 06:22:53 PM 25.9150 -80.3678 263° West 216 249 5,300 -829 Descending Miami Center
Sun 06:23:55 PM 25.9136 -80.4303 269° West 190 219 4,500 -976 Descending Miami Center
Sun 06:24:56 PM 25.8914 -80.4758 242° Southwest 199 229 3,300 -984 Descending Miami Center
Sun 06:25:57 PM 25.8461 -80.4581 161° South 165 190 2,500 -656 Descending Miami Center
Sun 06:27:04 PM 25.8136 -80.4203 134° Southeast 152 175 1,900 -564 Descending Miami Center
Sun 06:27:54 PM 25.8019 -80.3831 109° East 159 183 1,400 -621 Descending Miami Center
Sun 06:29:00 PM 25.7989 -80.3344 94° East 136 157 700 -636 Descending Miami Center
Sun 06:30:00 PM 25.7954 -80.2901 134° Southeast  Level Estimated
Sun 06:37:00 PM 25.7954 -80.2901 134° Southeast  Level Estimated
Sun 06:38:00 PM 25.7954 -80.2901 134° Southeast  Level Estimated

Login

Don't have an account? Register now (free) for customized features, flight alerts, and more!